createdAt,value
2022-09-14T00:01:58.418Z,15.52
2022-09-14T00:04:22.653Z,15.54
2022-09-14T00:06:49.237Z,15.38
2022-09-14T00:09:17.353Z,15.63
2022-09-14T00:11:41.487Z,15.41
2022-09-14T00:14:07.651Z,15.51
2022-09-14T00:16:36.158Z,15.76
2022-09-14T00:19:05.744Z,15.60
2022-09-14T00:21:30.330Z,15.47
2022-09-14T00:23:54.918Z,15.53
2022-09-14T00:26:21.611Z,15.61
2022-09-14T00:28:47.358Z,15.79
2022-09-14T00:31:12.730Z,15.65
2022-09-14T00:33:38.474Z,15.82
2022-09-14T00:36:08.038Z,15.88
2022-09-14T00:38:32.428Z,15.44
2022-09-14T00:41:00.210Z,15.36
2022-09-14T00:43:24.422Z,15.54
2022-09-14T00:45:48.695Z,15.34
2022-09-14T00:48:12.877Z,15.54
2022-09-14T00:50:38.508Z,15.60
2022-09-14T00:53:03.024Z,15.74
2022-09-14T00:55:27.217Z,15.53
2022-09-14T00:57:54.164Z,15.60
2022-09-14T01:00:21.948Z,15.12
2022-09-14T01:02:46.694Z,14.78
2022-09-14T01:05:12.958Z,14.84
2022-09-14T01:07:52.594Z,15.11
2022-09-14T01:10:28.960Z,14.96
2022-09-14T01:13:05.420Z,14.72
2022-09-14T01:15:38.559Z,14.55
2022-09-14T01:18:08.433Z,14.89
2022-09-14T01:20:37.162Z,14.82
2022-09-14T01:23:11.950Z,15.00
2022-09-14T01:26:00.767Z,14.78
2022-09-14T01:28:33.159Z,14.81
2022-09-14T01:31:02.188Z,14.91
2022-09-14T01:33:31.518Z,14.55
2022-09-14T01:35:59.884Z,14.78
2022-09-14T01:38:29.009Z,14.74
2022-09-14T01:40:53.778Z,14.24
2022-09-14T01:43:22.666Z,14.41
2022-09-14T01:45:53.153Z,14.59
2022-09-14T01:48:22.183Z,14.72
2022-09-14T01:50:48.554Z,14.40
2022-09-14T01:53:17.732Z,14.49
2022-09-14T01:55:45.595Z,14.94
2022-09-14T01:58:14.125Z,14.90
2022-09-14T02:00:44.138Z,14.80
2022-09-14T02:03:15.205Z,14.71
2022-09-14T02:05:47.029Z,14.88
2022-09-14T02:08:11.305Z,14.88
2022-09-14T02:10:35.599Z,14.79
2022-09-14T02:13:00.207Z,14.68
2022-09-14T02:15:26.099Z,15.06
2022-09-14T02:17:51.095Z,14.89
2022-09-14T02:20:23.191Z,15.06
2022-09-14T02:22:47.568Z,14.79
2022-09-14T02:25:11.874Z,14.79
2022-09-14T02:27:36.259Z,14.72
2022-09-14T02:30:00.620Z,14.72
2022-09-14T02:32:37.039Z,14.84
2022-09-14T02:35:09.322Z,14.80
2022-09-14T02:37:46.369Z,14.59
2022-09-14T02:40:19.657Z,14.70
2022-09-14T02:42:59.240Z,15.06
2022-09-14T02:45:30.227Z,14.93
2022-09-14T02:48:02.944Z,14.72
2022-09-14T02:50:36.285Z,15.15
2022-09-14T02:53:09.363Z,14.79
2022-09-14T02:55:38.512Z,14.46
2022-09-14T02:58:04.665Z,14.56
2022-09-14T03:00:29.994Z,14.88
2022-09-14T03:02:54.321Z,14.98
2022-09-14T03:05:18.529Z,15.07
2022-09-14T03:07:42.663Z,15.02
2022-09-14T03:10:09.343Z,14.90
2022-09-14T03:12:34.489Z,15.03
2022-09-14T03:14:58.655Z,14.98
2022-09-14T03:17:22.820Z,14.84
2022-09-14T03:19:47.454Z,14.90
2022-09-14T03:22:11.643Z,14.56
2022-09-14T03:24:36.437Z,14.59
2022-09-14T03:27:01.938Z,14.54
2022-09-14T03:29:26.226Z,15.09
2022-09-14T03:31:50.933Z,14.90
2022-09-14T03:34:15.051Z,14.63
2022-09-14T03:36:39.495Z,14.86
2022-09-14T03:39:04.065Z,14.90
2022-09-14T03:41:28.733Z,14.85
2022-09-14T03:43:54.456Z,14.83
2022-09-14T03:46:20.794Z,14.93
2022-09-14T03:48:46.257Z,14.51
2022-09-14T03:51:12.352Z,14.79
2022-09-14T03:53:37.646Z,14.80
2022-09-14T03:56:02.131Z,14.71
2022-09-14T03:58:26.739Z,14.65
2022-09-14T04:00:53.059Z,14.61
2022-09-14T04:03:17.929Z,14.90
2022-09-14T04:05:42.164Z,14.82
2022-09-14T04:08:06.462Z,14.98
2022-09-14T04:10:30.744Z,14.99
2022-09-14T04:12:54.732Z,14.93
2022-09-14T04:15:19.422Z,14.85
2022-09-14T04:17:45.033Z,14.78
2022-09-14T04:20:28.522Z,14.98
2022-09-14T04:22:52.710Z,15.03
2022-09-14T04:25:17.218Z,15.21
2022-09-14T04:27:41.426Z,15.37
2022-09-14T04:30:07.040Z,15.81
2022-09-14T04:32:34.414Z,15.76
2022-09-14T04:35:00.932Z,15.92
2022-09-14T04:37:27.242Z,16.08
2022-09-14T04:39:51.449Z,16.14
2022-09-14T04:42:15.625Z,16.19
2022-09-14T04:44:40.001Z,16.23
2022-09-14T04:47:04.377Z,16.14
2022-09-14T04:49:28.665Z,16.28
2022-09-14T04:51:54.326Z,16.34
2022-09-14T04:54:19.847Z,16.37
2022-09-14T04:56:44.465Z,16.82
2022-09-14T04:59:08.882Z,17.03
2022-09-14T05:01:36.207Z,16.95
2022-09-14T05:04:00.605Z,17.18
2022-09-14T05:06:27.289Z,16.83
2022-09-14T05:33:29.908Z,18.15
2022-09-14T05:35:54.172Z,18.12
2022-09-14T05:38:18.432Z,18.18
2022-09-14T05:40:42.871Z,18.24
2022-09-14T05:43:07.028Z,18.35
2022-09-14T05:45:31.590Z,18.63
2022-09-14T05:47:57.393Z,18.65
2022-09-14T05:50:23.303Z,18.68
2022-09-14T05:52:48.979Z,18.98
2022-09-14T05:55:13.037Z,19.00
2022-09-14T05:57:37.201Z,19.09
2022-09-14T06:00:01.313Z,19.32
2022-09-14T06:02:36.796Z,19.07
2022-09-14T06:05:01.011Z,19.40
2022-09-14T06:07:26.951Z,19.09
2022-09-14T06:09:51.049Z,19.15
2022-09-14T06:12:15.229Z,19.33
2022-09-14T06:14:40.895Z,19.25
2022-09-14T06:17:05.887Z,19.45
2022-09-14T06:19:30.293Z,19.59
2022-09-14T06:21:54.529Z,19.80
2022-09-14T06:24:20.212Z,19.94
2022-09-14T06:26:44.281Z,19.76
2022-09-14T06:29:08.905Z,20.19
2022-09-14T06:31:33.109Z,20.20
2022-09-14T06:33:57.394Z,20.03
2022-09-14T06:36:22.849Z,20.08
2022-09-14T06:38:49.055Z,20.34
2022-09-14T06:41:18.541Z,20.77
2022-09-14T06:43:43.910Z,20.83
2022-09-14T06:46:09.627Z,21.13
2022-09-14T06:48:35.974Z,21.27
2022-09-14T06:51:00.256Z,21.08
2022-09-14T06:53:24.527Z,21.04
2022-09-14T06:55:48.977Z,21.08
2022-09-14T06:58:14.888Z,20.86
2022-09-14T07:00:39.412Z,21.35
2022-09-14T07:03:03.595Z,21.37
2022-09-14T07:05:27.990Z,21.41
2022-09-14T07:07:53.690Z,21.70
2022-09-14T07:10:18.086Z,21.78
2022-09-14T07:12:42.417Z,21.75
2022-09-14T07:15:09.953Z,21.80
2022-09-14T07:17:37.632Z,21.82
2022-09-14T07:20:02.220Z,22.02
2022-09-14T07:22:27.440Z,22.22
2022-09-14T07:24:51.545Z,22.19
2022-09-14T07:27:15.761Z,22.30
2022-09-14T07:29:39.773Z,22.47
2022-09-14T07:32:05.574Z,21.77
2022-09-14T07:34:29.833Z,22.30
2022-09-14T07:36:54.347Z,22.12
2022-09-14T07:39:19.372Z,22.34
2022-09-14T07:41:44.635Z,22.32
2022-09-14T07:44:10.141Z,22.43
2022-09-14T07:46:39.448Z,22.27
2022-09-14T07:49:06.223Z,22.21
2022-09-14T07:51:31.573Z,22.50
2022-09-14T07:53:56.350Z,22.45
2022-09-14T07:56:21.842Z,22.30
2022-09-14T07:58:46.137Z,22.09
2022-09-14T08:01:13.094Z,22.64
2022-09-14T08:03:37.512Z,22.53
2022-09-14T08:06:05.985Z,22.85
2022-09-14T08:08:30.988Z,22.73
2022-09-14T08:10:56.201Z,23.22
2022-09-14T08:13:20.447Z,23.20
2022-09-14T08:15:44.509Z,23.14
2022-09-14T08:18:09.119Z,23.05
2022-09-14T08:20:33.170Z,23.16
2022-09-14T08:23:00.574Z,23.15
2022-09-14T08:25:24.983Z,23.18
2022-09-14T08:27:49.187Z,22.99
2022-09-14T08:30:14.470Z,23.25
2022-09-14T08:32:38.880Z,23.48
2022-09-14T08:35:02.820Z,23.60
2022-09-14T08:37:28.648Z,23.07
2022-09-14T08:39:54.422Z,23.51
2022-09-14T08:42:23.127Z,23.67
2022-09-14T08:44:54.078Z,23.64
2022-09-14T08:47:21.383Z,23.45
2022-09-14T08:49:48.717Z,23.86
2022-09-14T08:52:24.387Z,23.46
2022-09-14T08:54:51.150Z,23.39
2022-09-14T08:57:20.094Z,23.70
2022-09-14T08:59:53.563Z,23.77
2022-09-14T09:02:37.866Z,24.02
2022-09-14T09:05:08.945Z,23.74
2022-09-14T09:07:40.424Z,23.60
2022-09-14T09:10:07.992Z,23.93
2022-09-14T09:12:38.097Z,24.05
2022-09-14T09:15:06.143Z,23.87
2022-09-14T09:17:34.853Z,24.16
2022-09-14T09:20:07.588Z,24.01
2022-09-14T09:22:37.481Z,23.98
2022-09-14T09:25:25.240Z,23.95
2022-09-14T09:27:50.975Z,24.00
2022-09-14T09:30:16.875Z,23.98
2022-09-14T09:32:42.142Z,24.19
2022-09-14T09:35:29.256Z,24.29
2022-09-14T09:37:56.808Z,24.24
2022-09-14T09:40:29.113Z,24.44
2022-09-14T09:43:12.279Z,24.71
2022-09-14T09:45:57.148Z,24.58
2022-09-14T09:48:26.094Z,24.89
2022-09-14T09:50:54.666Z,24.69
2022-09-14T09:53:22.521Z,24.73
2022-09-14T09:55:50.701Z,24.87
2022-09-14T09:58:30.885Z,24.62
2022-09-14T10:01:00.207Z,25.01
2022-09-14T10:03:34.354Z,25.05
2022-09-14T10:06:07.354Z,24.89
2022-09-14T10:08:35.119Z,25.25
2022-09-14T10:10:59.485Z,25.06
2022-09-14T10:13:29.577Z,25.05
2022-09-14T10:15:54.228Z,24.97
2022-09-14T10:18:20.539Z,25.13
2022-09-14T10:20:47.019Z,25.15
2022-09-14T10:23:26.872Z,25.81
2022-09-14T10:25:53.465Z,25.89
2022-09-14T10:28:24.379Z,25.99
2022-09-14T10:30:56.334Z,25.71
2022-09-14T10:33:20.893Z,25.96
2022-09-14T10:35:56.455Z,25.77
2022-09-14T10:38:33.158Z,25.43
2022-09-14T10:41:06.062Z,25.66
2022-09-14T10:43:40.453Z,25.52
2022-09-14T10:46:08.996Z,25.94
2022-09-14T10:49:03.764Z,25.97
2022-09-14T10:51:40.232Z,25.72
2022-09-14T10:54:13.239Z,25.81
2022-09-14T10:56:51.836Z,25.99
2022-09-14T10:59:31.921Z,25.73
2022-09-14T11:02:20.058Z,25.91
2022-09-14T11:05:05.115Z,26.30
2022-09-14T11:07:36.872Z,26.08
2022-09-14T11:10:12.534Z,25.97
2022-09-14T11:12:44.342Z,25.99
2022-09-14T11:15:19.208Z,26.18
2022-09-14T11:18:06.578Z,26.52
2022-09-14T11:20:42.720Z,26.26
2022-09-14T11:23:24.535Z,26.15
2022-09-14T11:25:55.474Z,26.30
2022-09-14T11:28:23.564Z,26.08
2022-09-14T11:30:54.666Z,26.19
2022-09-14T11:33:25.177Z,26.37
2022-09-14T11:35:56.245Z,26.49
2022-09-14T11:38:22.415Z,26.64
2022-09-14T11:40:49.073Z,25.86
2022-09-14T11:43:17.266Z,26.55
2022-09-14T11:45:46.607Z,26.50
2022-09-14T11:48:42.267Z,26.60
2022-09-14T11:51:08.293Z,26.55
2022-09-14T11:53:34.044Z,26.70
2022-09-14T11:55:58.376Z,26.76
2022-09-14T11:58:25.762Z,26.50
2022-09-14T12:01:26.835Z,27.00
2022-09-14T12:04:06.483Z,26.90
2022-09-14T12:06:57.159Z,27.25
2022-09-14T12:09:53.790Z,27.45
2022-09-14T12:12:36.710Z,27.60
2022-09-14T12:15:03.812Z,27.41
2022-09-14T12:17:40.279Z,27.14
2022-09-14T12:20:37.084Z,26.97
2022-09-14T12:23:29.729Z,27.21
2022-09-14T12:25:58.298Z,27.62
2022-09-14T12:28:31.010Z,26.96
2022-09-14T12:31:12.784Z,27.31
2022-09-14T12:34:02.511Z,27.37
2022-09-14T12:37:12.467Z,27.83
2022-09-14T12:39:38.066Z,27.46
2022-09-14T12:42:06.689Z,27.17
2022-09-14T12:44:42.646Z,27.18
2022-09-14T12:47:40.668Z,27.36
2022-09-14T12:50:17.289Z,27.14
2022-09-14T12:52:50.076Z,27.40
2022-09-14T12:55:42.438Z,27.73
2022-09-14T12:58:15.589Z,27.48
2022-09-14T13:00:53.212Z,27.25
2022-09-14T13:03:34.395Z,27.45
2022-09-14T13:05:59.683Z,27.49
2022-09-14T13:08:25.912Z,27.57
2022-09-14T13:10:53.167Z,27.85
2022-09-14T13:13:20.060Z,27.47
2022-09-14T13:15:53.152Z,27.64
2022-09-14T13:18:29.920Z,27.52
2022-09-14T13:20:55.991Z,27.78
2022-09-14T13:23:21.671Z,28.18
2022-09-14T13:25:45.805Z,27.67
2022-09-14T13:28:17.897Z,27.82
2022-09-14T13:30:43.344Z,27.84
2022-09-14T13:33:07.430Z,27.76
2022-09-14T13:35:38.170Z,28.10
2022-09-14T13:38:09.906Z,28.34
2022-09-14T13:40:34.385Z,28.26
2022-09-14T13:42:59.577Z,27.83
2022-09-14T13:45:25.867Z,27.64
2022-09-14T13:47:51.110Z,27.60
2022-09-14T13:50:16.136Z,27.22
2022-09-14T13:53:01.414Z,27.54
2022-09-14T13:55:29.564Z,27.23
2022-09-14T13:58:21.307Z,27.58
2022-09-14T14:00:53.827Z,28.01
2022-09-14T14:03:31.593Z,27.53
2022-09-14T14:05:55.836Z,27.42
2022-09-14T14:08:32.503Z,27.30
2022-09-14T14:10:57.680Z,26.94
2022-09-14T14:13:26.674Z,26.75
2022-09-14T14:15:53.847Z,26.88
2022-09-14T14:18:40.987Z,27.51
2022-09-14T14:21:07.778Z,27.13
2022-09-14T14:23:32.515Z,26.40
2022-09-14T14:26:08.899Z,26.69
2022-09-14T14:28:33.433Z,26.79
2022-09-14T14:31:07.740Z,26.82
2022-09-14T14:33:33.109Z,26.60
2022-09-14T14:35:57.661Z,26.53
2022-09-14T14:38:22.683Z,26.72
2022-09-14T14:40:49.036Z,26.75
2022-09-14T14:43:19.609Z,26.58
2022-09-14T14:45:44.037Z,26.48
2022-09-14T14:48:11.429Z,26.59
2022-09-14T14:50:36.188Z,26.33
2022-09-14T14:53:00.637Z,26.05
2022-09-14T14:55:27.679Z,26.42
2022-09-14T14:57:53.224Z,26.34
2022-09-14T15:00:20.254Z,25.93
2022-09-14T15:02:44.972Z,25.76
2022-09-14T15:05:11.698Z,25.98
2022-09-14T15:07:37.772Z,25.90
2022-09-14T15:10:02.657Z,26.21
2022-09-14T15:12:27.589Z,26.19
2022-09-14T15:14:51.679Z,25.90
2022-09-14T15:17:15.851Z,25.80
2022-09-14T15:19:40.453Z,25.53
2022-09-14T15:22:06.404Z,25.42
2022-09-14T15:24:31.235Z,25.22
2022-09-14T15:26:56.685Z,25.37
2022-09-14T15:29:20.807Z,24.98
2022-09-14T15:31:45.200Z,24.63
2022-09-14T15:34:09.665Z,24.84
2022-09-14T15:36:38.651Z,25.23
2022-09-14T15:39:04.493Z,24.81
2022-09-14T15:41:28.738Z,24.49
2022-09-14T15:43:52.946Z,24.37
2022-09-14T15:46:17.230Z,24.42
2022-09-14T15:48:42.664Z,24.60
2022-09-14T15:51:11.868Z,24.99
2022-09-14T15:53:38.573Z,24.47
2022-09-14T15:56:10.968Z,24.26
2022-09-14T15:58:35.134Z,24.22
2022-09-14T16:00:59.168Z,24.36
2022-09-14T16:03:23.439Z,24.27
2022-09-14T16:05:47.705Z,23.95
2022-09-14T16:08:11.885Z,23.80
2022-09-14T16:10:36.313Z,24.05
2022-09-14T16:13:02.008Z,24.31
2022-09-14T16:15:26.223Z,24.13
2022-09-14T16:17:53.869Z,24.22
2022-09-14T16:20:18.314Z,24.02
2022-09-14T16:22:42.468Z,24.06
2022-09-14T16:25:07.306Z,24.00
2022-09-14T16:27:31.833Z,24.05
2022-09-14T16:30:01.323Z,23.85
2022-09-14T16:32:27.754Z,23.86
2022-09-14T16:34:52.117Z,23.77
2022-09-14T16:37:16.971Z,23.46
2022-09-14T16:39:41.229Z,23.40
2022-09-14T16:42:06.851Z,23.51
2022-09-14T16:44:31.469Z,23.90
2022-09-14T16:46:58.923Z,23.60
2022-09-14T16:49:27.184Z,23.83
2022-09-14T16:51:51.656Z,23.65
2022-09-14T16:54:17.471Z,23.59
2022-09-14T16:56:41.984Z,22.95
2022-09-14T16:59:08.729Z,23.04
2022-09-14T17:01:35.195Z,23.36
2022-09-14T17:04:03.830Z,23.11
2022-09-14T17:06:31.789Z,22.75
2022-09-14T17:08:59.578Z,22.69
2022-09-14T17:11:24.823Z,22.29
2022-09-14T17:13:49.490Z,22.41
2022-09-14T17:16:16.156Z,22.20
2022-09-14T17:18:41.746Z,22.15
2022-09-14T17:21:09.529Z,22.35
2022-09-14T17:23:34.355Z,21.98
2022-09-14T17:25:58.437Z,21.97
2022-09-14T17:28:25.868Z,22.16
2022-09-14T17:30:52.303Z,22.13
2022-09-14T17:33:16.594Z,21.55
2022-09-14T17:35:47.404Z,21.77
2022-09-14T17:38:13.484Z,21.76
2022-09-14T17:40:37.494Z,21.91
2022-09-14T17:43:01.572Z,21.45
2022-09-14T17:45:25.863Z,21.33
2022-09-14T17:47:50.031Z,21.20
2022-09-14T17:50:14.449Z,21.28
2022-09-14T17:52:38.887Z,21.21
2022-09-14T17:55:04.435Z,21.42
2022-09-14T17:57:28.848Z,21.17
2022-09-14T17:59:53.329Z,20.93
2022-09-14T18:02:17.620Z,20.77
2022-09-14T18:04:46.557Z,20.71
2022-09-14T18:07:13.577Z,20.66
2022-09-14T18:09:37.847Z,20.97
2022-09-14T18:12:04.125Z,20.75
2022-09-14T18:14:28.484Z,20.76
2022-09-14T18:16:52.996Z,20.71
2022-09-14T18:19:17.648Z,20.92
2022-09-14T18:21:42.794Z,20.59
2022-09-14T18:24:07.685Z,20.44
2022-09-14T18:26:32.490Z,20.26
2022-09-14T18:29:01.275Z,20.54
2022-09-14T18:31:26.598Z,20.37
2022-09-14T18:33:52.423Z,20.59
2022-09-14T18:36:18.674Z,20.34
2022-09-14T18:38:42.889Z,20.17
2022-09-14T18:41:10.291Z,20.43
2022-09-14T18:43:35.029Z,20.56
2022-09-14T18:46:01.387Z,20.34
2022-09-14T18:48:25.839Z,19.91
2022-09-14T18:50:50.272Z,20.23
2022-09-14T18:53:14.772Z,19.94
2022-09-14T18:55:39.496Z,19.93
2022-09-14T18:58:04.290Z,19.97
2022-09-14T19:00:29.028Z,19.82
2022-09-14T19:02:55.912Z,20.24
2022-09-14T19:05:20.842Z,19.95
2022-09-14T19:07:44.847Z,19.51
2022-09-14T19:10:11.714Z,19.33
2022-09-14T19:12:36.694Z,19.66
2022-09-14T19:15:00.904Z,19.45
2022-09-14T19:17:27.338Z,19.45
2022-09-14T19:19:54.009Z,19.66
2022-09-14T19:22:18.181Z,20.03
2022-09-14T19:24:42.457Z,19.36
2022-09-14T19:27:07.639Z,19.77
2022-09-14T19:29:32.902Z,19.96
2022-09-14T19:31:58.588Z,19.84
2022-09-14T19:34:25.345Z,19.84
2022-09-14T19:36:52.176Z,19.91
2022-09-14T19:39:16.701Z,19.95
2022-09-14T19:41:41.373Z,19.98
2022-09-14T19:44:07.874Z,20.03
2022-09-14T19:46:32.556Z,19.91
2022-09-14T19:48:57.110Z,19.81
2022-09-14T19:51:28.270Z,19.73
2022-09-14T19:54:13.464Z,19.86
2022-09-14T19:56:37.846Z,19.65
2022-09-14T19:59:03.518Z,19.62
2022-09-14T20:01:29.641Z,19.46
2022-09-14T20:03:54.480Z,19.58
2022-09-14T20:06:22.964Z,19.77
2022-09-14T20:08:47.817Z,19.60
2022-09-14T20:11:19.748Z,19.49
2022-09-14T20:13:44.522Z,19.43
2022-09-14T20:16:13.346Z,19.62
2022-09-14T20:18:38.137Z,19.52
2022-09-14T20:21:02.360Z,19.49
2022-09-14T20:23:26.682Z,19.33
2022-09-14T20:25:52.677Z,19.39
2022-09-14T20:28:18.353Z,19.38
2022-09-14T20:30:42.875Z,19.31
2022-09-14T20:33:08.116Z,19.22
2022-09-14T20:35:32.483Z,19.65
2022-09-14T20:37:56.649Z,19.26
2022-09-14T20:40:20.893Z,19.28
2022-09-14T20:42:45.110Z,19.34
2022-09-14T20:45:12.080Z,19.29
2022-09-14T20:47:36.616Z,19.42
2022-09-14T20:50:00.737Z,19.34
2022-09-14T20:52:24.863Z,19.35
2022-09-14T20:54:49.129Z,19.45
2022-09-14T20:57:13.452Z,19.66
2022-09-14T20:59:37.728Z,19.56
2022-09-14T21:02:05.510Z,19.91
2022-09-14T21:04:30.199Z,19.93
2022-09-14T21:06:55.408Z,19.59
2022-09-14T21:09:20.980Z,19.90
2022-09-14T21:11:46.454Z,19.68
2022-09-14T21:14:10.493Z,19.39
2022-09-14T21:16:37.123Z,19.27
2022-09-14T21:19:05.875Z,18.97
2022-09-14T21:21:30.932Z,18.98
2022-09-14T21:23:56.221Z,18.93
2022-09-14T21:26:21.383Z,19.00
2022-09-14T21:28:45.690Z,18.61
2022-09-14T21:31:12.139Z,18.63
2022-09-14T21:33:38.332Z,18.53
2022-09-14T21:36:08.098Z,18.70
2022-09-14T21:38:32.831Z,18.79
2022-09-14T21:40:56.869Z,18.50
2022-09-14T21:43:20.955Z,18.73
2022-09-14T21:45:46.454Z,19.06
2022-09-14T21:48:10.649Z,18.77
2022-09-14T21:50:34.822Z,18.61
2022-09-14T21:53:00.545Z,18.69
2022-09-14T21:55:24.647Z,18.76
2022-09-14T21:57:50.541Z,18.88
2022-09-14T22:00:15.524Z,18.78
2022-09-14T22:02:39.920Z,18.90
2022-09-14T22:05:04.205Z,19.31
2022-09-14T22:07:29.224Z,18.72
2022-09-14T22:09:54.861Z,18.85
2022-09-14T22:12:18.947Z,18.25
2022-09-14T22:14:43.199Z,18.43
2022-09-14T22:17:07.397Z,18.29
2022-09-14T22:19:33.522Z,18.75
2022-09-14T22:21:59.203Z,18.98
2022-09-14T22:24:26.518Z,18.93
2022-09-14T22:26:52.621Z,19.13
2022-09-14T22:29:17.327Z,19.13
2022-09-14T22:31:43.527Z,19.06
2022-09-14T22:34:08.271Z,19.26
2022-09-14T22:36:34.164Z,19.13
2022-09-14T22:38:59.674Z,19.21
2022-09-14T22:41:26.153Z,19.25
2022-09-14T22:43:52.949Z,19.02
2022-09-14T22:46:18.600Z,19.26
2022-09-14T22:48:43.044Z,19.06
2022-09-14T22:51:10.446Z,19.30
2022-09-14T22:53:35.789Z,19.32
2022-09-14T22:56:00.035Z,18.98
2022-09-14T22:58:28.776Z,19.01
2022-09-14T23:00:54.956Z,19.02
2022-09-14T23:03:20.345Z,19.34
2022-09-14T23:05:51.097Z,19.32
2022-09-14T23:08:15.411Z,19.23
2022-09-14T23:10:39.820Z,19.15
2022-09-14T23:13:04.050Z,19.08
2022-09-14T23:15:28.148Z,18.95
2022-09-14T23:17:54.181Z,19.23
2022-09-14T23:20:18.741Z,19.31
2022-09-14T23:22:44.716Z,19.35
2022-09-14T23:25:09.796Z,19.13
2022-09-14T23:27:34.671Z,19.17
2022-09-14T23:29:58.958Z,19.19
2022-09-14T23:32:23.187Z,19.12
2022-09-14T23:34:50.268Z,19.34
2022-09-14T23:37:14.456Z,19.28
2022-09-14T23:39:38.574Z,19.45
2022-09-14T23:42:04.051Z,18.95
2022-09-14T23:44:28.377Z,18.97
2022-09-14T23:46:57.894Z,19.18
2022-09-14T23:49:22.078Z,19.11
2022-09-14T23:51:47.684Z,18.85
2022-09-14T23:54:12.179Z,19.06
2022-09-14T23:56:38.644Z,19.02
2022-09-14T23:59:02.929Z,19.11
